Time;durP1;ratioP1;P1;durP2;ratioP2;P2;SDS_P1;SDS_P2;PMS_P1;PMS_P2;Temp;Humidity;BMP_temperature;BMP_pressure;BME280_temperature;BME280_humidity;BME280_pressure;Samples;Min_cycle;Max_cycle;Signal;HPM_P1;HPM_P2
2022/01/15 00:00:39;;;;;;;85.57;29.25;;;;;;;0.16;77.98;101502.41;5015405;28;20048;-78
2022/01/15 00:03:08;;;;;;;84.40;30.02;;;;;;;0.16;77.88;101510.22;4984329;28;20050;-78
2022/01/15 00:05:35;;;;;;;81.18;30.25;;;;;;;0.16;77.75;101498.03;4989840;28;20072;-78
2022/01/15 00:08:04;;;;;;;84.93;29.90;;;;;;;0.17;77.95;101496.28;5016221;28;20048;-78
2022/01/15 00:10:31;;;;;;;85.10;30.00;;;;;;;0.16;77.83;101502.41;5003627;28;20052;-78
2022/01/15 00:12:59;;;;;;;84.25;32.10;;;;;;;0.17;77.84;101507.56;4985417;28;20095;-78
2022/01/15 00:15:33;;;;;;;92.85;31.80;;;;;;;0.19;77.61;101512.78;5018294;28;20084;-78
2022/01/15 00:18:10;;;;;;;94.68;33.50;;;;;;;0.17;77.78;101497.13;5037012;28;20096;-78
2022/01/15 00:20:41;;;;;;;84.05;32.30;;;;;;;0.14;77.47;101499.78;5014664;28;20049;-78
2022/01/15 00:23:08;;;;;;;87.00;30.52;;;;;;;0.16;77.66;101498.03;4998968;28;20053;-78
2022/01/15 00:25:35;;;;;;;94.90;31.45;;;;;;;0.15;77.63;101495.44;5020665;28;20046;-78
2022/01/15 00:28:02;;;;;;;80.80;29.05;;;;;;;0.16;77.74;101500.63;5001684;28;20038;-78
2022/01/15 00:30:29;;;;;;;84.60;31.13;;;;;;;0.15;77.50;101495.44;5018653;28;20053;-78
2022/01/15 00:32:56;;;;;;;81.25;28.55;;;;;;;0.13;77.51;101490.25;5016527;28;20125;-78
2022/01/15 00:35:24;;;;;;;81.95;29.70;;;;;;;0.14;77.51;101493.72;5020468;28;20043;-78
2022/01/15 00:37:51;;;;;;;90.55;32.95;;;;;;;0.13;77.60;101495.47;5005463;28;20050;-79
2022/01/15 00:40:19;;;;;;;86.25;32.13;;;;;;;0.12;77.46;101496.34;5004269;28;20050;-78
2022/01/15 00:42:51;;;;;;;76.45;27.08;;;;;;;0.11;77.40;101493.78;4984784;28;20037;-78
2022/01/15 00:45:21;;;;;;;79.00;28.88;;;;;;;0.14;77.74;101494.56;5021440;28;20049;-78
2022/01/15 00:47:50;;;;;;;74.53;28.45;;;;;;;0.11;77.46;101501.63;4999246;28;20045;-78
2022/01/15 00:50:18;;;;;;;69.93;26.73;;;;;;;0.12;77.53;101491.13;5021962;28;20383;-79
2022/01/15 00:52:44;;;;;;;65.93;23.63;;;;;;;0.12;77.30;101491.13;5011077;28;20389;-78
2022/01/15 00:55:12;;;;;;;71.95;27.52;;;;;;;0.09;77.36;101491.19;5020722;28;20424;-78
2022/01/15 00:57:40;;;;;;;72.43;25.50;;;;;;;0.10;77.17;101500.75;5020635;28;20160;-78
2022/01/15 01:00:10;;;;;;;74.57;28.50;;;;;;;0.12;77.42;101485.03;5023109;28;20042;-78
2022/01/15 01:02:36;;;;;;;72.32;26.08;;;;;;;0.11;77.01;101484.19;5022998;28;20366;-78
2022/01/15 01:05:03;;;;;;;69.97;26.08;;;;;;;0.10;76.95;101482.47;5006780;28;20379;-78
2022/01/15 01:07:31;;;;;;;67.57;26.00;;;;;;;0.11;76.94;101480.72;5021609;28;20064;-78
2022/01/15 01:10:28;;;;;;;66.60;27.05;;;;;;;0.11;77.24;101470.28;5022684;28;20053;-79
2022/01/15 01:23:48;;;;;;;66.82;25.73;;;;;;;0.06;76.70;101472.97;4990211;28;20385;-78
2022/01/15 01:26:30;;;;;;;64.03;23.80;;;;;;;0.06;76.65;101466.88;5005074;28;20060;-79
2022/01/15 01:29:19;;;;;;;64.47;28.10;;;;;;;0.05;76.76;101470.38;5047837;28;20381;-78
2022/01/15 01:31:59;;;;;;;67.55;26.58;;;;;;;0.04;76.61;101468.66;5007924;28;20111;-78
2022/01/15 01:34:34;;;;;;;71.70;25.20;;;;;;;0.04;76.76;101468.66;5012205;28;20053;-78
2022/01/15 01:37:16;;;;;;;66.78;25.20;;;;;;;0.02;76.78;101463.47;5016273;28;20042;-79
2022/01/15 01:40:05;;;;;;;69.03;25.50;;;;;;;0.03;76.66;101473.03;5003660;28;20049;-78
2022/01/15 01:42:42;;;;;;;57.63;21.95;;;;;;;-0.02;76.21;101475.72;4968153;28;20063;-78
2022/01/15 01:45:13;;;;;;;54.47;22.30;;;;;;;-0.02;76.65;101485.31;5024545;28;20048;-78
2022/01/15 01:47:42;;;;;;;69.28;25.08;;;;;;;-0.03;77.06;101480.97;4989032;28;20493;-78
2022/01/15 01:50:10;;;;;;;64.25;23.35;;;;;;;-0.07;77.52;101472.34;5024354;28;20049;-79
2022/01/15 01:52:37;;;;;;;67.93;25.15;;;;;;;-0.01;77.85;101468.75;5014625;28;20596;-78
2022/01/15 01:55:05;;;;;;;66.97;25.38;;;;;;;0.05;77.91;101486.03;5000875;28;20099;-78
2022/01/15 01:57:32;;;;;;;74.30;24.92;;;;;;;-0.01;77.74;101473.97;5008376;28;20050;-78
2022/01/15 01:59:59;;;;;;;52.15;21.08;;;;;;;-0.01;77.80;101464.38;5021786;28;20049;-78
2022/01/15 02:02:26;;;;;;;65.38;24.65;;;;;;;-0.03;78.30;101468.75;5020262;28;20041;-78
2022/01/15 02:04:57;;;;;;;62.08;23.92;;;;;;;-0.07;78.82;101471.47;5017974;28;20405;-78
2022/01/15 02:07:26;;;;;;;57.85;23.42;;;;;;;-0.07;78.58;101468.88;5005772;28;20053;-78
2022/01/15 02:09:54;;;;;;;65.10;24.45;;;;;;;-0.02;78.76;101487.94;5019324;28;20057;-78
2022/01/15 02:12:21;;;;;;;60.83;22.15;;;;;;;0.03;78.84;101475.66;5002126;28;20101;-81
2022/01/15 02:14:48;;;;;;;57.08;20.83;;;;;;;0.03;78.32;101472.19;5003933;28;20107;-78
2022/01/15 02:17:19;;;;;;;53.53;20.23;;;;;;;0.09;78.68;101465.06;4985691;28;20045;-79
2022/01/15 02:20:09;;;;;;;55.53;20.48;;;;;;;-0.04;78.79;101463.59;5021220;28;20045;-78
2022/01/15 02:25:19;;;;;;;57.65;21.20;;;;;;;-0.02;79.09;101452.22;5007727;28;20055;-78
2022/01/15 02:27:45;;;;;;;54.78;20.10;;;;;;;-0.10;79.58;101445.41;5020975;28;20045;-78
2022/01/15 02:30:13;;;;;;;56.40;18.25;;;;;;;-0.06;79.73;101436.63;5022536;28;20136;-80
2022/01/15 02:32:40;;;;;;;52.00;18.35;;;;;;;-0.07;79.68;101435.78;4986705;28;20041;-78
2022/01/15 02:35:07;;;;;;;45.35;18.42;;;;;;;-0.07;79.73;101437.53;5023403;28;20076;-78
2022/01/15 02:37:34;;;;;;;53.08;17.75;;;;;;;-0.07;79.92;101442.75;5018704;28;20680;-78
2022/01/15 02:40:01;;;;;;;56.30;18.92;;;;;;;0.16;79.43;101434.47;5000970;28;20603;-78
2022/01/15 02:42:30;;;;;;;56.97;19.60;;;;;;;-0.02;79.48;101435.69;4991150;28;20052;-79
2022/01/15 02:45:00;;;;;;;53.65;18.15;;;;;;;0.01;80.49;101438.25;4984994;28;20116;-79
2022/01/15 02:50:14;;;;;;;48.63;16.77;;;;;;;-0.05;80.25;101434.00;4989855;28;20133;-80
2022/01/15 02:52:41;;;;;;;48.17;17.38;;;;;;;-0.07;80.05;101433.16;5001063;28;20546;-78
2022/01/15 02:55:08;;;;;;;49.17;15.88;;;;;;;-0.09;80.36;101434.09;5020131;28;20430;-79
2022/01/15 02:57:35;;;;;;;49.60;17.08;;;;;;;-0.25;80.99;101417.84;4997604;28;20068;-83
2022/01/15 03:00:03;;;;;;;50.83;16.77;;;;;;;-0.16;81.14;101422.88;5019074;28;20033;-78
2022/01/15 03:02:32;;;;;;;57.38;16.55;;;;;;;-0.11;80.76;101422.81;5032052;28;20049;-84
2022/01/15 03:04:59;;;;;;;53.97;16.50;;;;;;;-0.07;80.07;101425.34;4980558;28;20095;-84
2022/01/15 03:07:26;;;;;;;45.95;15.90;;;;;;;-0.08;80.41;101417.50;5004944;28;20045;-85
2022/01/15 03:09:53;;;;;;;48.58;14.35;;;;;;;-0.12;80.94;101413.25;5028693;28;20049;-84
2022/01/15 03:12:20;;;;;;;47.75;15.00;;;;;;;-0.08;80.63;101407.06;5020080;28;20044;-84
2022/01/15 03:14:48;;;;;;;45.35;14.75;;;;;;;-0.09;80.80;101407.97;4996593;28;20050;-84
2022/01/15 03:17:15;;;;;;;50.75;16.73;;;;;;;-0.08;80.88;101410.53;5013119;28;20505;-84
2022/01/15 03:19:42;;;;;;;47.10;15.25;;;;;;;0.10;81.35;101411.06;5003495;28;20045;-84
2022/01/15 03:22:08;;;;;;;47.90;15.55;;;;;;;0.00;80.87;101394.75;5000982;28;20128;-82
2022/01/15 03:24:35;;;;;;;42.15;14.85;;;;;;;0.03;80.67;101396.44;5017970;28;20045;-84
2022/01/15 03:27:03;;;;;;;50.90;15.15;;;;;;;0.05;80.89;101395.53;5012305;28;20049;-84
2022/01/15 03:29:30;;;;;;;51.78;15.90;;;;;;;0.04;80.70;101385.09;5017217;28;20057;-83
2022/01/15 03:31:56;;;;;;;47.50;15.30;;;;;;;0.01;81.03;101390.38;4988269;28;20052;-84
2022/01/15 03:34:23;;;;;;;47.03;16.05;;;;;;;-0.03;81.29;101397.41;5015287;28;20068;-84
2022/01/15 03:36:50;;;;;;;51.30;15.88;;;;;;;0.01;81.29;101391.25;5003526;28;20641;-84
2022/01/15 03:39:16;;;;;;;52.13;14.63;;;;;;;-0.02;81.44;101381.72;5003899;28;20752;-84
2022/01/15 03:41:43;;;;;;;53.55;14.73;;;;;;;0.01;81.47;101382.53;4994047;28;20508;-84
2022/01/15 03:44:10;;;;;;;47.85;14.88;;;;;;;0.03;81.57;101379.00;5006303;28;20037;-84
2022/01/15 03:46:38;;;;;;;48.80;15.48;;;;;;;0.05;81.43;101376.34;5013432;28;20377;-85
2022/01/15 03:49:04;;;;;;;49.15;15.10;;;;;;;0.08;81.21;101374.56;5014048;28;20049;-84
2022/01/15 03:51:31;;;;;;;51.60;15.40;;;;;;;0.04;81.49;101380.72;5004776;28;20056;-85
2022/01/15 03:53:58;;;;;;;51.92;14.95;;;;;;;0.11;81.53;101373.63;5018332;28;20526;-84
2022/01/15 03:56:25;;;;;;;56.20;16.35;;;;;;;0.02;81.67;101366.81;5002297;28;20065;-84
2022/01/15 03:58:51;;;;;;;52.67;15.30;;;;;;;0.02;81.79;101373.81;5002610;28;20045;-84
2022/01/15 04:01:18;;;;;;;58.83;16.90;;;;;;;-0.03;82.16;101379.13;5023112;28;20046;-84
2022/01/15 04:03:45;;;;;;;53.80;15.45;;;;;;;0.03;81.78;101372.94;5005431;28;20064;-84
2022/01/15 04:06:15;;;;;;;51.05;15.52;;;;;;;0.06;82.15;101362.41;5020546;28;20489;-84
2022/01/15 04:08:42;;;;;;;48.53;15.13;;;;;;;0.08;82.09;101358.88;4990256;28;20519;-84
2022/01/15 04:11:08;;;;;;;48.67;15.15;;;;;;;0.10;81.79;101351.00;4998678;28;20057;-84
2022/01/15 04:13:35;;;;;;;51.72;14.38;;;;;;;0.13;81.98;101356.19;5017951;28;20060;-83
2022/01/15 04:16:02;;;;;;;56.67;15.35;;;;;;;0.05;82.49;101360.69;5019547;28;20052;-84
2022/01/15 04:18:35;;;;;;;55.78;14.88;;;;;;;0.08;82.04;101364.09;5022840;28;20452;-84
2022/01/15 04:21:03;;;;;;;50.70;14.32;;;;;;;0.09;82.36;101364.97;5006587;28;20061;-85
2022/01/15 04:23:29;;;;;;;54.03;14.57;;;;;;;0.10;82.02;101348.38;5016230;28;20405;-84
2022/01/15 04:25:56;;;;;;;49.83;14.15;;;;;;;0.11;82.11;101356.22;4991350;28;20500;-84
2022/01/15 04:28:23;;;;;;;60.30;15.32;;;;;;;0.13;82.36;101366.63;5009441;28;20042;-84
2022/01/15 04:30:50;;;;;;;51.75;15.68;;;;;;;0.15;82.21;101359.59;5023729;28;20046;-84
2022/01/15 04:33:17;;;;;;;58.28;16.27;;;;;;;0.16;82.52;101356.13;5004352;28;20041;-84
2022/01/15 04:35:43;;;;;;;55.70;16.30;;;;;;;0.19;82.56;101351.66;5006913;28;20095;-85
2022/01/15 04:38:12;;;;;;;54.17;15.82;;;;;;;0.21;82.57;101349.91;5019281;28;20045;-84
2022/01/15 04:40:39;;;;;;;54.03;15.05;;;;;;;0.19;82.62;101349.06;5024570;28;20068;-84
2022/01/15 04:43:06;;;;;;;54.55;13.73;;;;;;;0.17;82.44;101350.84;4990683;28;20108;-84
2022/01/15 04:45:32;;;;;;;53.22;15.30;;;;;;;0.16;82.69;101354.34;4991665;28;20056;-84
2022/01/15 04:47:59;;;;;;;47.30;15.00;;;;;;;0.20;82.68;101353.41;5016007;28;20045;-84
2022/01/15 04:50:25;;;;;;;55.42;15.68;;;;;;;0.30;82.86;101359.28;5023159;28;20416;-84
2022/01/15 04:52:52;;;;;;;55.33;14.50;;;;;;;0.24;82.80;101363.78;4990199;28;20049;-84
2022/01/15 04:55:19;;;;;;;64.43;15.23;;;;;;;0.23;82.71;101362.94;5022172;28;20046;-84
2022/01/15 04:57:45;;;;;;;48.17;13.70;;;;;;;0.25;82.93;101361.13;5007831;28;20049;-83
2022/01/15 05:00:15;;;;;;;49.70;13.80;;;;;;;0.25;82.86;101355.91;5006012;28;20044;-84
2022/01/15 05:02:42;;;;;;;41.53;12.27;;;;;;;0.22;83.16;101362.03;5005058;28;20048;-83
2022/01/15 05:05:09;;;;;;;38.55;11.68;;;;;;;0.27;83.16;101364.56;5018619;28;20084;-84
2022/01/15 05:07:36;;;;;;;45.30;13.75;;;;;;;0.30;83.18;101351.44;4995340;28;20053;-84
2022/01/15 05:10:05;;;;;;;45.45;13.02;;;;;;;0.30;83.41;101367.13;4983521;28;20108;-84
2022/01/15 05:12:39;;;;;;;51.20;13.85;;;;;;;0.33;83.14;101360.97;4989955;28;20041;-84
2022/01/15 05:15:07;;;;;;;45.50;12.68;;;;;;;0.33;83.40;101368.78;4977929;28;20046;-84
2022/01/15 05:17:33;;;;;;;49.25;14.73;;;;;;;0.29;83.37;101361.94;5005600;28;20478;-83
2022/01/15 05:20:00;;;;;;;44.35;13.70;;;;;;;0.33;83.50;101364.47;5013590;28;20050;-84
2022/01/15 05:22:27;;;;;;;47.45;13.30;;;;;;;0.42;83.22;101364.25;5017515;28;20052;-84
2022/01/15 05:24:54;;;;;;;53.97;15.43;;;;;;;0.51;83.58;101371.03;5020823;28;20055;-84
2022/01/15 05:27:20;;;;;;;34.60;10.90;;;;;;;0.40;83.19;101378.22;5016043;28;20046;-84
2022/01/15 05:29:47;;;;;;;32.90;10.30;;;;;;;0.39;83.13;101366.94;5021892;28;20512;-84
2022/01/15 05:32:14;;;;;;;28.80;10.25;;;;;;;0.34;83.76;101371.38;4990183;28;20041;-84
2022/01/15 05:34:40;;;;;;;38.38;11.82;;;;;;;0.32;83.70;101367.94;4990728;28;20060;-84
2022/01/15 05:37:07;;;;;;;34.72;10.05;;;;;;;0.30;84.29;101361.03;5022738;28;20046;-84
2022/01/15 05:39:34;;;;;;;37.60;10.45;;;;;;;0.29;84.26;101354.09;5006253;28;20515;-84
2022/01/15 05:42:01;;;;;;;36.30;10.40;;;;;;;0.29;84.22;101362.78;5019683;28;20582;-84
2022/01/15 05:44:27;;;;;;;40.08;11.52;;;;;;;0.31;84.02;101362.78;5015711;28;20057;-84
2022/01/15 05:46:54;;;;;;;33.92;10.40;;;;;;;0.36;84.16;101360.91;5018118;28;20087;-84
2022/01/15 05:49:21;;;;;;;38.58;10.95;;;;;;;0.39;83.92;101360.84;5002742;28;20049;-84
2022/01/15 05:51:49;;;;;;;36.55;10.23;;;;;;;0.36;84.08;101353.94;5023255;28;22238;-81
2022/01/15 05:54:15;;;;;;;35.80;10.77;;;;;;;0.45;83.97;101354.63;5020369;28;20046;-84
2022/01/15 05:56:42;;;;;;;43.72;12.77;;;;;;;0.32;83.92;101356.63;5004715;28;20056;-84
2022/01/15 05:59:09;;;;;;;39.80;13.00;;;;;;;0.33;84.26;101347.91;5005343;28;20795;-83
2022/01/15 06:01:36;;;;;;;38.72;11.77;;;;;;;0.37;84.28;101346.94;5020802;28;20050;-84
2022/01/15 06:04:04;;;;;;;40.42;13.30;;;;;;;0.30;84.91;101354.03;5019113;28;20150;-84
2022/01/15 06:06:31;;;;;;;48.83;14.07;;;;;;;0.34;84.94;101344.41;5022487;28;20048;-84
2022/01/15 06:08:59;;;;;;;38.55;10.35;;;;;;;0.40;84.38;101346.88;5016846;28;20053;-84
2022/01/15 06:11:27;;;;;;;45.33;13.30;;;;;;;0.38;84.25;101346.94;4993303;28;20099;-84
2022/01/15 06:13:53;;;;;;;50.00;13.95;;;;;;;0.28;84.43;101342.78;5014386;28;20045;-84
2022/01/15 06:16:21;;;;;;;50.60;15.00;;;;;;;0.28;85.09;101344.53;5015472;28;20445;-84
2022/01/15 06:18:48;;;;;;;39.83;11.80;;;;;;;0.39;84.63;101343.41;5003178;28;20115;-84
2022/01/15 06:21:16;;;;;;;42.00;12.65;;;;;;;0.36;84.58;101340.00;5017503;28;20045;-84
2022/01/15 06:23:42;;;;;;;40.88;12.98;;;;;;;0.40;84.50;101336.41;4995860;28;20065;-84
2022/01/15 06:26:09;;;;;;;45.20;12.60;;;;;;;0.50;84.25;101334.47;4999728;28;20096;-84
2022/01/15 06:28:36;;;;;;;40.05;11.65;;;;;;;0.46;84.58;101332.81;4999864;28;20042;-83
2022/01/15 06:31:03;;;;;;;44.70;11.98;;;;;;;0.42;84.28;101335.50;5016261;28;20050;-84
2022/01/15 06:33:32;;;;;;;42.55;11.75;;;;;;;0.37;84.53;101333.88;5020592;28;20111;-84
2022/01/15 06:35:59;;;;;;;37.20;12.13;;;;;;;0.37;84.73;101331.28;5016158;28;20504;-84
2022/01/15 06:38:26;;;;;;;35.40;10.68;;;;;;;0.40;84.99;101331.19;5018784;28;20057;-84
2022/01/15 06:40:53;;;;;;;39.65;11.68;;;;;;;0.37;85.17;101326.03;5001241;28;20049;-84
2022/01/15 06:43:19;;;;;;;37.70;13.07;;;;;;;0.42;84.63;101324.19;5017599;28;20038;-84
2022/01/15 06:45:46;;;;;;;44.90;13.30;;;;;;;0.52;84.28;101327.47;5017210;28;20136;-84
2022/01/15 06:48:14;;;;;;;39.47;12.15;;;;;;;0.46;84.64;101324.97;5017148;28;20053;-84
2022/01/15 06:50:42;;;;;;;45.53;12.63;;;;;;;0.45;84.69;101318.03;5021198;28;20052;-84
2022/01/15 06:53:09;;;;;;;43.45;11.93;;;;;;;0.46;84.58;101317.13;5007603;28;20103;-83
2022/01/15 06:55:36;;;;;;;41.00;12.95;;;;;;;0.49;84.94;101322.31;5020375;28;20080;-84
2022/01/15 06:58:02;;;;;;;49.00;13.40;;;;;;;0.44;84.87;101327.63;5019730;28;20496;-84
2022/01/15 07:00:29;;;;;;;50.05;15.07;;;;;;;0.44;84.57;101325.03;5021235;28;20080;-83
2022/01/15 07:03:00;;;;;;;40.65;13.75;;;;;;;0.49;84.81;101324.91;5015236;28;20057;-84
2022/01/15 07:05:29;;;;;;;36.92;13.95;;;;;;;0.45;84.96;101321.50;5018566;28;20439;-83
2022/01/15 07:07:56;;;;;;;35.47;10.75;;;;;;;0.46;84.84;101318.00;5016244;28;20510;-84
2022/01/15 07:10:23;;;;;;;34.75;11.77;;;;;;;0.43;85.34;101318.06;5003188;28;20054;-84
2022/01/15 07:12:51;;;;;;;42.05;12.48;;;;;;;0.54;85.11;101317.84;5011258;28;20033;-84
2022/01/15 07:15:18;;;;;;;42.53;13.23;;;;;;;0.51;85.05;101323.09;5015515;28;20061;-84
2022/01/15 07:17:45;;;;;;;43.67;13.60;;;;;;;0.54;85.01;101320.44;5014368;28;20107;-84
2022/01/15 07:20:14;;;;;;;38.13;12.15;;;;;;;0.51;85.08;101315.25;5001911;28;20050;-84
2022/01/15 07:22:41;;;;;;;42.45;13.32;;;;;;;0.50;85.19;101318.78;5018720;28;20049;-84
2022/01/15 07:25:09;;;;;;;40.40;12.50;;;;;;;0.58;84.63;101328.16;5005608;28;20420;-84
2022/01/15 07:27:36;;;;;;;40.83;13.25;;;;;;;0.54;84.57;101315.22;4987618;28;20481;-84
2022/01/15 07:30:04;;;;;;;43.53;13.77;;;;;;;0.52;85.24;101323.09;5017512;28;20048;-84
2022/01/15 07:32:31;;;;;;;47.72;13.40;;;;;;;0.56;84.70;101329.97;5021016;28;20523;-83
2022/01/15 07:34:58;;;;;;;49.28;13.80;;;;;;;0.50;84.67;101322.25;5016722;28;20448;-84
2022/01/15 07:37:25;;;;;;;47.53;15.60;;;;;;;0.54;84.60;101326.53;5005100;28;20041;-83
2022/01/15 07:39:53;;;;;;;45.58;14.43;;;;;;;0.54;84.67;101329.13;5001338;28;20057;-84
2022/01/15 07:42:20;;;;;;;41.88;13.45;;;;;;;0.49;84.64;101327.53;5002440;28;20065;-83
2022/01/15 07:44:48;;;;;;;39.42;12.45;;;;;;;0.53;84.63;101327.41;5018662;28;20059;-84
2022/01/15 07:47:15;;;;;;;35.80;10.45;;;;;;;0.56;84.62;101323.84;4998522;28;20046;-83
2022/01/15 07:49:42;;;;;;;35.97;14.27;;;;;;;0.56;84.70;101322.13;5016040;28;20361;-84
2022/01/15 07:52:09;;;;;;;47.72;15.10;;;;;;;0.55;84.73;101324.75;5001246;28;20046;-80
2022/01/15 07:54:35;;;;;;;45.75;16.05;;;;;;;0.52;85.24;101328.31;5017341;28;20392;-79
2022/01/15 07:57:03;;;;;;;45.45;15.80;;;;;;;0.53;84.85;101322.16;5015129;28;20060;-80
2022/01/15 07:59:29;;;;;;;51.72;16.48;;;;;;;0.59;84.60;101324.66;5017207;28;20050;-80
2022/01/15 08:01:56;;;;;;;49.78;16.13;;;;;;;0.58;84.09;101329.91;4987751;28;20042;-80
2022/01/15 08:04:23;;;;;;;49.20;15.20;;;;;;;0.56;84.39;101313.41;5003609;28;20075;-80
2022/01/15 08:06:50;;;;;;;45.35;14.40;;;;;;;0.52;84.55;101317.84;5003242;28;20452;-80
2022/01/15 08:09:16;;;;;;;45.33;15.57;;;;;;;0.50;84.55;101309.19;5019345;28;20500;-80
2022/01/15 08:11:43;;;;;;;51.30;15.75;;;;;;;0.54;84.66;101307.38;5003450;28;20052;-80
2022/01/15 08:14:10;;;;;;;47.42;16.75;;;;;;;0.56;84.58;101310.78;4993578;28;20042;-80
2022/01/15 08:16:36;;;;;;;50.17;16.08;;;;;;;0.56;84.63;101308.19;5000390;28;20045;-80
2022/01/15 08:19:03;;;;;;;44.70;15.00;;;;;;;0.59;83.87;101300.28;5014039;28;20405;-80
2022/01/15 08:21:30;;;;;;;45.67;16.05;;;;;;;0.67;83.78;101300.97;5012739;28;20504;-80
2022/01/15 08:23:56;;;;;;;36.97;14.65;;;;;;;0.55;84.39;101288.19;5017333;28;20049;-80
2022/01/15 08:26:23;;;;;;;47.25;16.25;;;;;;;0.57;84.42;101300.31;5001272;28;20053;-80
2022/01/15 08:28:50;;;;;;;50.67;17.88;;;;;;;0.60;84.56;101300.22;5016810;28;20038;-80
2022/01/15 08:31:17;;;;;;;48.55;16.50;;;;;;;0.64;84.26;101306.25;4980635;28;20049;-80
2022/01/15 08:33:44;;;;;;;51.97;16.25;;;;;;;0.53;84.82;101314.34;5002269;28;20070;-80
2022/01/15 08:36:11;;;;;;;49.08;17.50;;;;;;;0.53;84.78;101296.03;4999073;28;20053;-80
2022/01/15 08:38:37;;;;;;;57.45;17.20;;;;;;;0.56;84.43;101295.09;5013840;28;20108;-80
2022/01/15 08:41:22;;;;;;;56.95;16.65;;;;;;;0.62;84.23;101298.44;5015460;28;20781;-80
2022/01/15 08:43:49;;;;;;;52.47;16.73;;;;;;;0.59;84.42;101297.66;5017743;28;20049;-80
2022/01/15 08:46:18;;;;;;;54.67;17.80;;;;;;;0.75;84.09;101306.00;4998848;28;20052;-80
2022/01/15 08:48:45;;;;;;;59.90;18.05;;;;;;;0.64;84.40;101308.88;5001965;28;20049;-80
2022/01/15 08:51:12;;;;;;;57.67;18.60;;;;;;;0.56;84.72;101303.84;5003708;28;20044;-80
2022/01/15 08:53:39;;;;;;;56.70;17.98;;;;;;;0.63;84.47;101301.91;5020518;28;20092;-80
2022/01/15 08:56:05;;;;;;;60.38;18.45;;;;;;;0.56;84.99;101296.00;5000643;28;20042;-80
2022/01/15 08:58:32;;;;;;;65.15;20.63;;;;;;;0.63;84.69;101294.91;4989589;28;20048;-80
2022/01/15 09:00:59;;;;;;;55.70;16.98;;;;;;;0.63;84.49;101300.16;5003369;28;20073;-80
2022/01/15 09:03:26;;;;;;;65.13;18.33;;;;;;;0.60;84.91;101304.59;5004280;28;20048;-79
2022/01/15 09:05:53;;;;;;;57.80;18.40;;;;;;;0.59;84.98;101295.91;5018470;28;20049;-80
2022/01/15 09:08:24;;;;;;;69.25;21.70;;;;;;;0.69;84.85;101306.13;5017866;28;20045;-79
2022/01/15 09:10:54;;;;;;;65.85;21.27;;;;;;;0.63;84.99;101302.75;5019399;28;20050;-79
2022/01/15 09:13:21;;;;;;;65.32;21.88;;;;;;;0.62;84.89;101308.91;4996603;28;20100;-79
2022/01/15 09:15:49;;;;;;;64.80;20.35;;;;;;;0.74;84.73;101304.25;5005647;28;20100;-80
2022/01/15 09:18:17;;;;;;;70.88;21.92;;;;;;;0.70;84.36;101311.34;4983576;28;20045;-79
2022/01/15 09:20:44;;;;;;;69.75;20.38;;;;;;;0.74;84.78;101307.75;4991978;28;20550;-79
2022/01/15 09:23:12;;;;;;;78.18;21.73;;;;;;;0.78;84.59;101305.91;5003254;28;20087;-80
2022/01/15 09:25:39;;;;;;;74.72;22.63;;;;;;;0.74;84.62;101304.25;5005112;28;20061;-79
2022/01/15 09:30:52;;;;;;;79.68;20.58;;;;;;;0.70;85.34;101300.03;4988998;28;20429;-79
2022/01/15 09:33:18;;;;;;;81.82;23.10;;;;;;;0.73;84.66;101299.94;4988677;28;20053;-80
2022/01/15 09:35:45;;;;;;;73.55;21.77;;;;;;;0.74;85.04;101299.91;4998805;28;20049;-80
2022/01/15 09:38:15;;;;;;;77.88;20.98;;;;;;;0.72;85.05;101295.63;5019818;28;20547;-80
2022/01/15 09:40:42;;;;;;;70.20;21.95;;;;;;;0.76;85.02;101292.00;4995822;28;20054;-80
2022/01/15 09:43:09;;;;;;;63.35;19.77;;;;;;;0.67;85.47;101293.13;5015271;28;20409;-80
2022/01/15 09:45:42;;;;;;;73.80;21.73;;;;;;;0.78;84.95;101290.22;5015170;28;20132;-79
2022/01/15 09:48:09;;;;;;;74.47;21.60;;;;;;;0.80;84.85;101286.69;5001555;28;20156;-80
2022/01/15 09:50:42;;;;;;;76.68;21.95;;;;;;;0.68;86.01;101291.34;4999681;28;20038;-80
2022/01/15 09:53:11;;;;;;;76.65;22.88;;;;;;;0.73;85.81;101285.09;5022273;28;20053;-81
2022/01/15 09:55:38;;;;;;;68.97;20.88;;;;;;;0.76;85.44;101281.56;5017150;28;20068;-80
2022/01/15 09:58:05;;;;;;;80.35;22.58;;;;;;;0.81;85.12;101277.06;5017393;28;20128;-80
2022/01/15 10:00:32;;;;;;;78.45;22.30;;;;;;;0.90;85.01;101276.84;5003893;28;20053;-80
2022/01/15 10:03:01;;;;;;;73.68;22.77;;;;;;;0.89;85.15;101275.16;5004299;28;21134;-80
2022/01/15 10:05:28;;;;;;;81.60;23.67;;;;;;;0.86;85.38;101281.28;4973091;28;20441;-81
2022/01/15 10:07:56;;;;;;;77.78;24.27;;;;;;;0.91;85.10;101273.34;5018885;28;20054;-80
2022/01/15 10:10:24;;;;;;;82.80;23.35;;;;;;;0.91;85.02;101272.47;5019489;28;20045;-81
2022/01/15 10:12:51;;;;;;;83.40;23.40;;;;;;;0.95;85.13;101269.75;5014752;28;20049;-78
2022/01/15 10:15:18;;;;;;;87.28;24.85;;;;;;;0.96;84.91;101266.22;4995479;28;20050;-79
2022/01/15 10:17:44;;;;;;;80.18;22.88;;;;;;;0.97;84.72;101269.72;5004584;28;20052;-79
2022/01/15 10:20:18;;;;;;;71.15;21.30;;;;;;;0.92;84.77;101264.59;4996108;28;20543;-79
2022/01/15 10:22:47;;;;;;;71.30;22.88;;;;;;;0.99;85.00;101263.56;4988459;28;20045;-79
2022/01/15 10:25:21;;;;;;;73.25;22.17;;;;;;;0.95;85.29;101263.66;5012685;28;20056;-80
2022/01/15 10:27:51;;;;;;;;;;;;;;;0.86;85.44;101257.75;5001711;28;20562;-79
2022/01/15 10:30:26;;;;;;;88.65;25.42;;;;;;;1.00;85.22;101257.41;4977087;28;19979;-79
2022/01/15 10:33:04;;;;;;;74.70;24.15;;;;;;;1.17;84.14;101245.63;5020023;28;20045;-80
2022/01/15 10:35:37;;;;;;;85.57;23.20;;;;;;;1.00;85.18;101244.34;4984463;28;20053;-80
2022/01/15 10:38:12;;;;;;;81.70;22.90;;;;;;;1.10;84.34;101238.88;5018500;28;20053;-80
2022/01/15 10:40:44;;;;;;;80.68;23.25;;;;;;;1.18;86.62;101240.38;5001944;28;20523;-80
2022/01/15 10:43:15;;;;;;;87.35;24.17;;;;;;;1.17;85.01;101241.28;4999864;28;20045;-81
2022/01/15 10:45:53;;;;;;;76.95;23.42;;;;;;;1.08;85.04;101233.66;5000836;28;20046;-81
2022/01/15 10:48:34;;;;;;;77.60;23.88;;;;;;;1.08;84.92;101237.13;5000865;28;20042;-80
2022/01/15 10:51:02;;;;;;;77.57;24.88;;;;;;;1.17;84.66;101233.44;4973256;28;20037;-80
2022/01/15 10:53:44;;;;;;;84.07;23.38;;;;;;;1.04;84.87;101232.03;5001394;28;20063;-80
2022/01/15 10:56:14;;;;;;;78.82;21.35;;;;;;;0.93;86.02;101228.84;5010306;28;20045;-80
2022/01/15 10:58:42;;;;;;;72.38;21.45;;;;;;;1.21;84.84;101223.72;4996238;28;20041;-80
2022/01/15 11:01:13;;;;;;;76.45;21.58;;;;;;;1.12;85.03;101218.72;5005064;28;20058;-80
2022/01/15 11:03:44;;;;;;;69.40;20.15;;;;;;;1.14;84.98;101223.03;4977014;28;20567;-80
2022/01/15 11:06:10;;;;;;;74.95;22.25;;;;;;;1.18;84.83;101214.22;5014236;28;20052;-80
2022/01/15 11:08:39;;;;;;;73.28;20.58;;;;;;;1.12;84.94;101213.50;4987580;28;20049;-80
2022/01/15 11:11:08;;;;;;;74.13;22.75;;;;;;;1.23;84.95;101214.94;4999767;28;20048;-80
2022/01/15 11:13:39;;;;;;;82.05;21.90;;;;;;;1.15;85.00;101219.53;5015076;28;20048;-80
2022/01/15 11:16:14;;;;;;;77.70;22.80;;;;;;;1.16;85.02;101212.53;4998408;28;20484;-80
2022/01/15 11:18:54;;;;;;;84.55;23.15;;;;;;;1.08;84.82;101208.38;5022133;28;20065;-80
2022/01/15 11:21:22;;;;;;;75.43;22.77;;;;;;;1.10;85.01;101197.03;4980677;28;20432;-80
2022/01/15 11:23:50;;;;;;;64.72;20.02;;;;;;;1.10;85.37;101199.63;5016349;28;20053;-80
2022/01/15 11:26:17;;;;;;;65.80;21.13;;;;;;;1.15;85.82;101205.59;4998142;28;20045;-80
2022/01/15 11:28:44;;;;;;;71.07;20.88;;;;;;;1.17;85.35;101199.41;5011234;28;20115;-81
2022/01/15 11:31:15;;;;;;;64.63;20.75;;;;;;;1.16;85.32;101205.53;5019107;28;20053;-80
2022/01/15 11:33:51;;;;;;;70.22;20.08;;;;;;;1.10;85.81;101200.47;4982881;28;20563;-80
2022/01/15 11:36:37;;;;;;;74.80;22.02;;;;;;;1.16;85.39;101204.69;4992426;28;20045;-80
2022/01/15 11:39:42;;;;;;;79.18;22.38;;;;;;;1.17;85.27;101183.72;5002723;28;20420;-80
2022/01/15 11:42:25;;;;;;;60.88;19.50;;;;;;;1.12;85.06;101183.00;4972441;28;20037;-80